Time;durP1;ratioP1;P1;durP2;ratioP2;P2;SDS_P1;SDS_P2;PMS_P1;PMS_P2;Temp;Humidity;BMP_temperature;BMP_pressure;BME280_temperature;BME280_humidity;BME280_pressure;Samples;Min_cycle;Max_cycle;Signal;HPM_P1;HPM_P2
2021/11/03 06:10:30;;;;;;;32.72;24.95;;;230.70;2252.80;;;;;;4827174;29;20170;-83
2021/11/03 06:13:17;;;;;;;30.85;22.88;;;230.70;2252.80;;;;;;4842219;24;20489;-85
2021/11/03 06:15:43;;;;;;;29.42;23.70;;;230.70;2252.80;;;;;;4808071;29;20030;-84
2021/11/03 06:18:10;;;;;;;30.85;25.10;;;230.80;2252.80;;;;;;4791868;29;20035;-85
2021/11/03 06:20:37;;;;;;;34.00;25.00;;;230.70;2252.80;;;;;;4791880;29;20039;-84
2021/11/03 06:23:05;;;;;;;35.05;25.02;;;230.90;2252.80;;;;;;4791876;29;20060;-84
2021/11/03 06:25:31;;;;;;;28.55;22.52;;;230.90;2252.80;;;;;;4791925;29;20038;-85
2021/11/03 06:27:58;;;;;;;32.33;24.42;;;231.20;2252.80;;;;;;4791602;29;20046;-84
2021/11/03 06:30:27;;;;;;;29.38;22.88;;;231.00;2252.80;;;;;;4791904;29;20031;-84
2021/11/03 06:32:53;;;;;;;29.17;23.67;;;231.00;2252.80;;;;;;4807998;29;20062;-85
2021/11/03 06:35:20;;;;;;;33.78;25.48;;;231.10;2252.80;;;;;;4791585;29;20202;-84
2021/11/03 06:37:46;;;;;;;26.60;21.92;;;231.20;2252.80;;;;;;4791240;29;20039;-84
2021/11/03 06:40:14;;;;;;;28.02;23.38;;;231.20;2252.80;;;;;;4807241;29;20366;-95
2021/11/03 06:42:40;;;;;;;31.80;23.85;;;231.30;2252.80;;;;;;4794579;29;20060;-84
2021/11/03 06:45:08;;;;;;;30.17;25.20;;;231.30;2252.80;;;;;;4807573;29;20031;-94
2021/11/03 06:47:34;;;;;;;32.95;25.27;;;256.00;2252.80;;;;;;4792661;29;20488;-85
2021/11/03 06:50:00;;;;;;;42.88;29.45;;;256.00;2252.80;;;;;;4791517;29;20035;-86
2021/11/03 06:52:27;;;;;;;58.30;37.80;;;256.00;2252.80;;;;;;4791217;29;20046;-84
2021/11/03 06:54:54;;;;;;;78.00;42.10;;;256.00;2252.80;;;;;;4791728;29;20473;-84
2021/11/03 06:57:19;;;;;;;68.93;41.20;;;256.10;2252.80;;;;;;4807635;29;20030;-94
2021/11/03 06:59:47;;;;;;;81.13;43.05;;;256.10;2252.80;;;;;;4791557;29;20030;-85
2021/11/03 07:02:16;;;;;;;64.53;35.88;;;256.10;2252.80;;;;;;4808159;29;20034;-94
2021/11/03 07:04:42;;;;;;;85.97;43.13;;;256.10;2252.80;;;;;;4791500;29;20388;-92
2021/11/03 07:07:09;;;;;;;67.25;37.83;;;256.20;2252.80;;;;;;4792046;29;20034;-95
2021/11/03 07:09:35;;;;;;;66.20;38.85;;;256.30;2252.80;;;;;;4792683;29;20053;-93
2021/11/03 07:12:01;;;;;;;67.30;37.78;;;256.30;2252.80;;;;;;4814045;29;20117;-95
2021/11/03 07:14:27;;;;;;;48.28;30.33;;;256.40;2252.80;;;;;;4791452;29;20561;-94
2021/11/03 07:16:53;;;;;;;37.72;25.55;;;256.40;2252.80;;;;;;4791539;29;20076;-93
2021/11/03 07:19:19;;;;;;;39.22;27.08;;;256.50;2252.80;;;;;;4807546;29;20034;-94
2021/11/03 07:21:45;;;;;;;36.78;26.52;;;256.60;2252.80;;;;;;4791944;29;20027;-95
2021/11/03 07:24:12;;;;;;;47.45;30.90;;;256.60;2252.80;;;;;;4791484;29;20042;-90
2021/11/03 07:26:41;;;;;;;44.90;31.05;;;256.70;2252.80;;;;;;4792368;29;20023;-85
2021/11/03 07:29:08;;;;;;;43.47;29.75;;;256.80;2252.80;;;;;;4791241;29;20498;-94
2021/11/03 07:31:34;;;;;;;42.55;30.35;;;256.30;2252.80;;;;;;4791022;29;20030;-86
2021/11/03 07:34:00;;;;;;;44.30;30.17;;;256.90;2252.80;;;;;;4807065;29;20035;-86
2021/11/03 07:36:26;;;;;;;40.28;29.75;;;281.60;2278.40;;;;;;4790901;29;20038;-84
2021/11/03 07:38:52;;;;;;;41.72;28.90;;;281.70;2278.40;;;;;;4805521;29;20492;-83
2021/11/03 07:41:18;;;;;;;36.55;27.65;;;281.80;2278.40;;;;;;4789917;29;20027;-84
2021/11/03 07:43:45;;;;;;;40.03;27.45;;;281.90;2278.40;;;;;;4790083;29;20369;-85
2021/11/03 07:46:11;;;;;;;38.55;25.80;;;281.90;2278.40;;;;;;4805613;29;20430;-84
2021/11/03 07:48:38;;;;;;;32.67;24.38;;;282.10;2278.40;;;;;;4806684;29;20039;-84
2021/11/03 07:51:08;;;;;;;33.30;27.13;;;282.10;2278.40;;;;;;4790437;29;20481;-84
2021/11/03 07:53:35;;;;;;;38.25;28.27;;;282.20;2278.40;;;;;;4790495;29;20034;-84
2021/11/03 07:56:05;;;;;;;39.95;30.40;;;282.50;2278.40;;;;;;4790125;29;20172;-84
2021/11/03 07:58:34;;;;;;;37.97;27.98;;;307.20;2304.00;;;;;;4806880;29;20377;-84
2021/11/03 08:01:01;;;;;;;41.30;28.15;;;307.30;2304.00;;;;;;4790213;29;20501;-84
2021/11/03 08:03:27;;;;;;;32.58;26.02;;;307.50;2304.00;;;;;;4790052;29;20027;-84
2021/11/03 08:05:54;;;;;;;43.70;32.13;;;307.70;2304.00;;;;;;4806392;29;20034;-85
2021/11/03 08:08:23;;;;;;;43.05;29.83;;;307.80;2304.00;;;;;;4787584;29;20035;-95
2021/11/03 08:10:49;;;;;;;37.10;27.70;;;308.10;2304.00;;;;;;4790369;29;20042;-83
2021/11/03 08:13:17;;;;;;;44.40;27.70;;;333.00;2329.60;;;;;;4805396;29;20153;-94
2021/11/03 08:15:45;;;;;;;32.65;24.98;;;333.20;2329.60;;;;;;4806290;29;20141;-93
2021/11/03 08:18:12;;;;;;;36.40;25.65;;;333.40;2329.60;;;;;;4790053;29;20125;-93
2021/11/03 08:20:40;;;;;;;34.50;23.92;;;333.60;2329.60;;;;;;4789996;29;20453;-82
2021/11/03 08:23:07;;;;;;;64.82;37.90;;;358.40;2329.60;;;;;;4789484;29;20066;-93
2021/11/03 08:25:33;;;;;;;50.45;31.52;;;358.80;2329.60;;;;;;4790376;29;20045;-94
2021/11/03 08:27:59;;;;;;;32.72;24.95;;;384.40;2252.80;;;;;;4789980;29;20103;-82
2021/11/03 08:30:26;;;;;;;32.97;24.65;;;409.60;2150.40;;;;;;4790515;29;20060;-91
2021/11/03 08:33:02;;;;;;;35.38;25.98;;;410.30;2124.80;;;;;;4790426;29;20035;-82
2021/11/03 08:35:29;;;;;;;33.45;26.45;;;435.40;2048.00;;;;;;4790012;29;20038;-83
2021/11/03 08:38:01;;;;;;;41.97;28.35;;;460.90;1971.20;;;;;;4805944;29;20187;-82
2021/11/03 08:40:28;;;;;;;39.92;30.25;;;486.60;1868.80;;;;;;4789879;29;20230;-91
2021/11/03 08:42:55;;;;;;;40.42;29.77;;;487.30;1766.40;;;;;;4805699;29;20037;-82
2021/11/03 08:45:21;;;;;;;43.17;28.05;;;537.60;1715.20;;;;;;4789708;29;20031;-91
2021/11/03 08:47:47;;;;;;;40.72;27.90;;;563.20;1612.80;;;;;;4805718;29;20045;-83
2021/11/03 08:50:18;;;;;;;39.95;27.98;;;563.80;1561.60;;;;;;4789621;29;20058;-85
2021/11/03 08:52:45;;;;;;;43.60;30.40;;;589.00;1484.80;;;;;;4789935;29;20038;-83
2021/11/03 08:55:11;;;;;;;41.03;32.00;;;588.80;1433.60;;;;;;4790566;29;20027;-91
2021/11/03 08:57:38;;;;;;;45.90;31.52;;;588.90;1433.60;;;;;;4809385;29;20073;-90
2021/11/03 09:00:13;;;;;;;38.38;30.33;;;563.80;1510.40;;;;;;4792560;29;20523;-81
2021/11/03 09:02:39;;;;;;;39.13;29.52;;;564.10;1433.60;;;;;;4808938;29;20060;-82
2021/11/03 09:05:06;;;;;;;35.83;29.77;;;615.10;1382.40;;;;;;4792757;29;20121;-82
2021/11/03 09:07:33;;;;;;;39.83;30.08;;;665.60;1254.40;;;;;;4792129;29;20046;-93
2021/11/03 09:10:03;;;;;;;36.20;28.10;;;666.30;1228.80;;;;;;4792707;29;20031;-94
2021/11/03 09:12:29;;;;;;;40.35;32.83;;;666.00;1228.80;;;;;;4808666;29;20054;-94
2021/11/03 09:14:55;;;;;;;36.33;29.83;;;691.80;1126.40;;;;;;4815492;29;20480;-91
2021/11/03 09:17:21;;;;;;;39.80;31.38;;;717.10;1100.80;;;;;;4815330;29;20027;-94
2021/11/03 09:19:47;;;;;;;43.15;31.38;;;717.00;1152.00;;;;;;4806358;29;20060;-91
2021/11/03 09:22:14;;;;;;;41.72;33.63;;;742.40;1049.60;;;;;;4792785;29;20038;-86
2021/11/03 09:24:40;;;;;;;43.55;34.10;;;768.30;972.80;;;;;;4808707;29;20041;-92
2021/11/03 09:27:13;;;;;;;46.22;35.75;;;768.70;947.20;;;;;;4792838;29;20039;-92
2021/11/03 09:29:42;;;;;;;39.70;32.60;;;743.10;947.20;;;;;;4808639;29;20058;-91
2021/11/03 09:32:11;;;;;;;39.33;33.05;;;742.40;998.40;;;;;;4790202;29;20083;-92
2021/11/03 09:34:38;;;;;;;38.17;32.63;;;692.10;1024.00;;;;;;4792292;29;20389;-92
2021/11/03 09:37:05;;;;;;;43.53;34.00;;;691.80;1024.00;;;;;;4792327;29;20023;-86
2021/11/03 09:39:31;;;;;;;45.90;34.10;;;691.20;1100.80;;;;;;4820368;29;20186;-81
2021/11/03 09:41:57;;;;;;;39.58;35.15;;;640.80;1152.00;;;;;;4806372;29;20023;-82
2021/11/03 09:44:31;;;;;;;41.55;34.90;;;615.00;1203.20;;;;;;4806099;29;20038;-81
2021/11/03 09:46:56;;;;;;;;;;;589.60;1254.40;;;;;;4792700;29;20135;-80
2021/11/03 09:49:37;;;;;;;43.17;35.78;;;589.50;1280.00;;;;;;4806992;29;19940;-81
2021/11/03 09:52:14;;;;;;;47.30;37.28;;;589.10;1356.80;;;;;;4791852;29;20370;-81
2021/11/03 09:54:44;;;;;;;47.97;37.58;;;563.80;1382.40;;;;;;4807501;29;20118;-81
2021/11/03 09:57:22;;;;;;;42.28;35.08;;;538.50;1433.60;;;;;;4791636;29;20106;-81
2021/11/03 09:59:51;;;;;;;47.55;37.50;;;538.00;1484.80;;;;;;4791622;29;20405;-81
2021/11/03 10:02:39;;;;;;;47.72;37.42;;;537.60;1536.00;;;;;;4806597;29;20031;-81
2021/11/03 10:05:06;;;;;;;46.67;39.05;;;512.60;1536.00;;;;;;4806635;29;20031;-82
2021/11/03 10:07:37;;;;;;;47.10;38.63;;;512.40;1561.60;;;;;;4806014;29;20035;-81
2021/11/03 10:10:19;;;;;;;54.08;40.65;;;512.30;1587.20;;;;;;4806494;29;20042;-82
2021/11/03 10:12:45;;;;;;;45.50;35.17;;;512.40;1561.60;;;;;;4791255;29;20051;-81
2021/11/03 10:15:11;;;;;;;44.40;36.92;;;487.30;1612.80;;;;;;4807601;29;20038;-82
2021/11/03 10:17:37;;;;;;;52.50;34.33;;;487.30;1612.80;;;;;;4791349;29;20035;-81
2021/11/03 10:20:29;;;;;;;43.05;33.75;;;512.40;1587.20;;;;;;4790736;29;20039;-82
2021/11/03 10:23:15;;;;;;;42.97;33.25;;;512.20;1587.20;;;;;;4791580;29;20062;-82
2021/11/03 10:25:47;;;;;;;44.15;31.13;;;512.40;1587.20;;;;;;4791267;29;20035;-90
2021/11/03 10:28:47;;;;;;;42.83;31.10;;;512.40;1587.20;;;;;;4791295;29;20051;-81
2021/11/03 10:31:21;;;;;;;43.60;32.78;;;512.40;1587.20;;;;;;4790775;29;20039;-91
2021/11/03 10:33:48;;;;;;;43.17;31.30;;;512.00;1638.40;;;;;;4806337;29;20037;-81
2021/11/03 10:36:24;;;;;;;43.17;32.33;;;486.90;1817.60;;;;;;4790733;29;20027;-81
2021/11/03 10:39:01;;;;;;;42.97;30.00;;;486.90;1715.20;;;;;;4807437;29;20027;-81
2021/11/03 10:41:34;;;;;;;42.22;30.00;;;486.50;1766.40;;;;;;4807402;29;20058;-82
2021/11/03 10:44:11;;;;;;;44.08;30.80;;;461.50;1817.60;;;;;;4807448;29;20031;-82
2021/11/03 10:46:58;;;;;;;42.55;30.98;;;461.30;1843.20;;;;;;4807262;29;20062;-81
2021/11/03 10:49:32;;;;;;;48.55;34.30;;;461.10;1894.40;;;;;;4791059;29;20027;-81
2021/11/03 10:52:17;;;;;;;44.38;32.20;;;460.90;1920.00;;;;;;4807554;29;20105;-82
2021/11/03 10:54:49;;;;;;;46.40;31.23;;;436.00;1945.60;;;;;;4806052;29;20033;-91
2021/11/03 10:57:20;;;;;;;47.15;31.95;;;436.10;1920.00;;;;;;4806874;29;20026;-81
2021/11/03 10:59:53;;;;;;;42.80;31.15;;;460.90;1920.00;;;;;;4790917;29;20023;-81
2021/11/03 11:02:26;;;;;;;40.78;30.33;;;436.10;1920.00;;;;;;4805724;29;20385;-81
2021/11/03 11:04:54;;;;;;;36.00;28.70;;;436.00;1945.60;;;;;;4790824;29;20038;-80
2021/11/03 11:07:39;;;;;;;45.45;29.88;;;436.00;1945.60;;;;;;4806573;29;20447;-91
2021/11/03 11:10:32;;;;;;;40.83;28.48;;;435.90;1945.60;;;;;;4790436;29;20087;-81
2021/11/03 11:13:00;;;;;;;40.28;29.08;;;435.70;1971.20;;;;;;4790443;29;20046;-81
2021/11/03 11:15:52;;;;;;;45.53;31.73;;;435.70;1971.20;;;;;;4806801;29;20027;-81
2021/11/03 11:18:47;;;;;;;52.53;33.97;;;435.60;2022.40;;;;;;4820002;29;20034;-81
2021/11/03 11:21:40;;;;;;;49.20;34.90;;;435.60;2022.40;;;;;;4790574;29;20031;-81
2021/11/03 11:24:11;;;;;;;45.17;33.55;;;435.60;2022.40;;;;;;4805628;29;20035;-84
2021/11/03 11:26:44;;;;;;;48.35;32.45;;;435.50;2048.00;;;;;;4806459;29;20019;-81
2021/11/03 11:29:22;;;;;;;48.47;32.72;;;435.50;2022.40;;;;;;4807019;29;20034;-81
2021/11/03 11:32:01;;;;;;;53.38;33.25;;;435.40;2048.00;;;;;;4820822;29;20041;-81
2021/11/03 11:34:54;;;;;;;46.33;32.33;;;435.40;2048.00;;;;;;4789240;29;20148;-92
2021/11/03 11:37:45;;;;;;;53.25;33.83;;;435.40;2048.00;;;;;;4807379;29;20038;-92
2021/11/03 11:40:17;;;;;;;44.08;30.00;;;435.40;2073.60;;;;;;4806093;29;20031;-91
2021/11/03 11:43:06;;;;;;;44.90;30.13;;;435.40;2073.60;;;;;;4806826;29;20061;-82
2021/11/03 11:45:36;;;;;;;43.95;31.15;;;435.40;2073.60;;;;;;4790930;29;20052;-91
2021/11/03 11:48:09;;;;;;;48.03;32.05;;;435.40;2073.60;;;;;;4790746;29;20091;-92
2021/11/03 11:50:48;;;;;;;52.65;33.22;;;435.40;2073.60;;;;;;4806626;29;20028;-93
2021/11/03 11:53:25;;;;;;;46.83;32.17;;;435.40;2073.60;;;;;;4790703;29;20519;-84
2021/11/03 11:56:20;;;;;;;52.67;32.17;;;435.60;2073.60;;;;;;4805001;29;20031;-82
2021/11/03 11:58:50;;;;;;;64.05;37.85;;;435.70;2048.00;;;;;;4786249;29;20035;-82
2021/11/03 12:01:20;;;;;;;52.30;35.38;;;435.80;2022.40;;;;;;4806148;29;20033;-82
2021/11/03 12:04:00;;;;;;;37.03;26.80;;;435.80;2022.40;;;;;;4790126;29;20073;-84
2021/11/03 12:06:56;;;;;;;38.28;25.70;;;435.90;2022.40;;;;;;4812060;29;20019;-82
2021/11/03 12:09:31;;;;;;;36.75;26.88;;;435.90;2022.40;;;;;;4812582;29;20210;-82
2021/11/03 12:11:59;;;;;;;42.50;28.00;;;435.80;2022.40;;;;;;4787575;29;20508;-88
2021/11/03 12:14:45;;;;;;;39.03;27.10;;;435.70;2022.40;;;;;;4805155;29;20061;-83
2021/11/03 12:17:20;;;;;;;41.85;26.38;;;435.70;2022.40;;;;;;4805370;29;20489;-82
2021/11/03 12:19:57;;;;;;;43.35;27.88;;;435.60;2048.00;;;;;;4789813;29;20039;-83
2021/11/03 12:22:29;;;;;;;40.05;26.70;;;435.60;2073.60;;;;;;4804988;29;20038;-82
2021/11/03 12:25:16;;;;;;;34.47;24.63;;;435.60;2073.60;;;;;;4805041;29;20062;-83
2021/11/03 12:27:46;;;;;;;37.67;26.73;;;435.50;2073.60;;;;;;4789854;29;20451;-82
2021/11/03 12:30:15;;;;;;;48.85;27.73;;;435.50;2099.20;;;;;;4792017;29;20396;-82
2021/11/03 12:32:44;;;;;;;47.35;27.58;;;435.50;2099.20;;;;;;4809468;29;20477;-82
2021/11/03 12:35:18;;;;;;;33.92;23.27;;;435.40;2099.20;;;;;;4809556;29;20031;-90
2021/11/03 12:38:10;;;;;;;30.48;21.98;;;435.40;2073.60;;;;;;4808276;29;20503;-82
2021/11/03 12:40:36;;;;;;;27.80;20.95;;;435.40;2073.60;;;;;;4809757;29;20062;-82
2021/11/03 12:43:12;;;;;;;30.70;22.33;;;435.40;2073.60;;;;;;4809408;29;20063;-82
2021/11/03 12:45:48;;;;;;;35.78;26.33;;;435.40;2073.60;;;;;;4809566;29;20496;-82
2021/11/03 12:48:24;;;;;;;81.35;44.90;;;435.40;2073.60;;;;;;4792958;29;20049;-82
2021/11/03 12:50:51;;;;;;;63.00;45.60;;;435.40;2099.20;;;;;;4809225;29;20077;-82
2021/11/03 12:53:20;;;;;;;51.42;34.65;;;435.50;2099.20;;;;;;4808176;29;20027;-82
2021/11/03 12:55:55;;;;;;;53.97;35.70;;;435.50;2099.20;;;;;;4792976;29;20035;-82
2021/11/03 12:58:32;;;;;;;50.40;31.90;;;435.50;2099.20;;;;;;4807988;29;20414;-82
2021/11/03 13:01:00;;;;;;;53.15;33.60;;;435.40;2099.20;;;;;;4793233;29;20431;-83
2021/11/03 13:03:31;;;;;;;61.60;38.05;;;435.40;2099.20;;;;;;4792599;29;20030;-86
2021/11/03 13:05:59;;;;;;;59.83;40.00;;;435.50;2099.20;;;;;;4793019;29;20476;-83
2021/11/03 13:08:37;;;;;;;47.75;29.25;;;435.50;2099.20;;;;;;4792325;29;20039;-90
2021/11/03 13:11:33;;;;;;;46.38;28.75;;;435.50;2099.20;;;;;;4807899;29;20035;-86
2021/11/03 13:14:04;;;;;;;46.65;29.10;;;435.60;2099.20;;;;;;4792612;29;20054;-83
2021/11/03 13:16:39;;;;;;;40.33;26.95;;;435.70;2073.60;;;;;;4792554;29;20405;-81
2021/11/03 13:19:19;;;;;;;37.95;24.63;;;435.80;2073.60;;;;;;4792619;29;20027;-81
2021/11/03 13:21:46;;;;;;;37.85;25.70;;;435.80;2048.00;;;;;;4807594;29;20088;-80
2021/11/03 13:24:26;;;;;;;44.88;25.40;;;435.80;2048.00;;;;;;4792519;29;20081;-81
2021/11/03 13:26:54;;;;;;;40.75;25.52;;;435.90;2048.00;;;;;;4808780;29;20034;-89
2021/11/03 13:29:28;;;;;;;40.65;26.73;;;436.00;2048.00;;;;;;4792400;29;20035;-82
2021/11/03 13:32:18;;;;;;;37.10;26.33;;;436.00;2048.00;;;;;;4807495;29;20438;-83
2021/11/03 13:34:45;;;;;;;37.67;25.27;;;436.00;2048.00;;;;;;4807777;29;20500;-86
2021/11/03 13:37:20;;;;;;;39.17;27.52;;;436.00;2048.00;;;;;;4807538;29;20116;-83
2021/11/03 13:40:07;;;;;;;46.72;29.80;;;436.00;2048.00;;;;;;4807183;29;20389;-82
2021/11/03 13:42:44;;;;;;;45.10;28.88;;;435.90;2073.60;;;;;;4806955;29;20062;-90
2021/11/03 13:45:28;;;;;;;52.55;30.17;;;435.80;2073.60;;;;;;4792405;29;20031;-81
2021/11/03 13:48:09;;;;;;;44.08;27.83;;;435.80;2099.20;;;;;;4808234;29;20038;-84
2021/11/03 13:50:36;;;;;;;45.63;30.52;;;435.70;2099.20;;;;;;4806712;29;20118;-82
2021/11/03 13:53:08;;;;;;;84.10;51.05;;;435.60;2124.80;;;;;;4808448;29;20110;-82
2021/11/03 13:55:55;;;;;;;70.63;43.35;;;435.50;2124.80;;;;;;4808150;29;20094;-82
2021/11/03 13:58:36;;;;;;;101.95;53.45;;;435.50;2150.40;;;;;;4806899;29;20038;-82
2021/11/03 14:01:08;;;;;;;73.60;45.53;;;435.40;2150.40;;;;;;4806728;29;20023;-82
2021/11/03 14:03:57;;;;;;;91.82;53.30;;;435.40;2150.40;;;;;;4808141;29;20026;-82
2021/11/03 14:06:31;;;;;;;83.13;49.97;;;435.30;2150.40;;;;;;4806653;29;20034;-82
2021/11/03 14:09:11;;;;;;;72.88;43.90;;;435.30;2176.00;;;;;;4806651;29;20043;-82
2021/11/03 14:11:38;;;;;;;71.82;41.25;;;435.30;2176.00;;;;;;4791697;29;20484;-82
2021/11/03 14:14:05;;;;;;;81.88;44.78;;;435.20;2227.20;;;;;;4790815;24;20059;-80
2021/11/03 14:17:00;;;;;;;84.20;45.67;;;435.20;2227.20;;;;;;4788368;30;20489;-81
2021/11/03 14:19:33;;;;;;;86.30;45.80;;;435.20;2227.20;;;;;;4772951;30;20039;-81
2021/11/03 14:22:01;;;;;;;71.13;44.38;;;410.50;2252.80;;;;;;4787983;30;20042;-92
2021/11/03 14:24:31;;;;;;;77.00;44.97;;;410.50;2252.80;;;;;;4789740;30;20027;-82
2021/11/03 14:27:00;;;;;;;70.97;41.53;;;410.40;2227.20;;;;;;4806450;29;20031;-92
2021/11/03 14:29:28;;;;;;;129.70;65.57;;;410.40;2252.80;;;;;;4807639;29;20102;-80
2021/11/03 14:31:57;;;;;;;90.55;51.47;;;410.40;2252.80;;;;;;4807142;29;20070;-82
2021/11/03 14:34:28;;;;;;;71.22;40.40;;;410.30;2227.20;;;;;;4807614;29;20041;-80
2021/11/03 14:36:55;;;;;;;66.15;40.90;;;410.30;2227.20;;;;;;4791472;29;20030;-82
2021/11/03 14:39:27;;;;;;;81.60;51.13;;;410.30;2227.20;;;;;;4807611;29;20026;-81
2021/11/03 14:41:55;;;;;;;80.90;51.63;;;410.20;2252.80;;;;;;4791305;29;20027;-81
2021/11/03 14:44:26;;;;;;;76.05;48.92;;;410.10;2278.40;;;;;;4805410;29;20275;-82
2021/11/03 14:46:57;;;;;;;71.20;43.20;;;410.10;2278.40;;;;;;4806833;29;20051;-81
2021/11/03 14:49:34;;;;;;;58.55;38.72;;;410.10;2304.00;;;;;;4804533;29;20466;-82
2021/11/03 14:52:07;;;;;;;62.35;43.13;;;410.00;2329.60;;;;;;4790471;29;20023;-81
2021/11/03 14:54:35;;;;;;;59.83;38.58;;;410.00;2329.60;;;;;;4806567;29;20083;-82
2021/11/03 14:57:02;;;;;;;59.83;38.22;;;410.00;2329.60;;;;;;4805151;29;20027;-82
2021/11/03 14:59:28;;;;;;;55.03;35.65;;;409.90;2329.60;;;;;;4805394;29;20034;-82
2021/11/03 15:01:59;;;;;;;49.70;34.58;;;409.90;2355.20;;;;;;4790285;29;20023;-83
2021/11/03 15:04:29;;;;;;;53.60;34.33;;;409.90;2329.60;;;;;;4806473;29;20034;-81
2021/11/03 15:06:56;;;;;;;64.30;36.60;;;409.80;2355.20;;;;;;4806307;29;20030;-81
2021/11/03 15:09:30;;;;;;;54.33;36.60;;;409.70;2355.20;;;;;;4806196;29;20134;-80
2021/11/03 15:11:57;;;;;;;70.20;39.10;;;409.80;2355.20;;;;;;4805060;29;20031;-80
2021/11/03 15:14:25;;;;;;;64.60;40.05;;;409.80;2355.20;;;;;;4804220;29;20055;-89
2021/11/03 15:16:53;;;;;;;69.18;42.63;;;409.80;2355.20;;;;;;4804141;29;20092;-79
2021/11/03 15:19:28;;;;;;;85.88;48.67;;;409.70;2355.20;;;;;;4806457;29;20043;-90
2021/11/03 15:21:55;;;;;;;72.95;43.88;;;409.70;2355.20;;;;;;4804908;29;20038;-79
2021/11/03 15:24:22;;;;;;;54.72;32.70;;;409.70;2355.20;;;;;;4805474;29;20041;-91
2021/11/03 15:26:48;;;;;;;47.78;28.30;;;409.70;2355.20;;;;;;4804548;29;20031;-80
2021/11/03 15:29:17;;;;;;;42.85;29.33;;;409.70;2355.20;;;;;;4812540;29;20035;-81
2021/11/03 15:31:45;;;;;;;41.95;28.73;;;409.70;2329.60;;;;;;4804832;29;20087;-79
2021/11/03 15:34:20;;;;;;;46.67;29.23;;;409.60;2355.20;;;;;;4789789;29;20027;-81
2021/11/03 15:36:47;;;;;;;58.83;35.75;;;409.60;2329.60;;;;;;4802905;29;20023;-80
2021/11/03 15:39:29;;;;;;;57.85;35.03;;;409.70;2329.60;;;;;;4790040;29;20118;-79
2021/11/03 15:41:59;;;;;;;59.95;33.70;;;409.60;2304.00;;;;;;4802717;29;20121;-80
2021/11/03 15:44:26;;;;;;;55.13;31.63;;;409.60;2304.00;;;;;;4806462;29;20105;-80
2021/11/03 15:46:53;;;;;;;39.97;23.88;;;409.60;2304.00;;;;;;4790068;29;20095;-80
2021/11/03 15:49:30;;;;;;;34.72;20.13;;;409.60;2278.40;;;;;;4806218;29;20045;-80
2021/11/03 15:51:59;;;;;;;34.65;20.10;;;409.60;2278.40;;;;;;4806185;29;20477;-80
2021/11/03 15:54:25;;;;;;;52.65;27.42;;;409.60;2278.40;;;;;;4804790;29;20038;-84
2021/11/03 15:56:52;;;;;;;56.65;27.60;;;409.60;2278.40;;;;;;4789878;29;20031;-82
2021/11/03 15:59:20;;;;;;;42.70;22.95;;;409.60;2278.40;;;;;;4804828;29;20064;-93
2021/11/03 16:01:49;;;;;;;39.95;22.55;;;409.60;2278.40;;;;;;4805755;29;20035;-83
2021/11/03 16:04:30;;;;;;;37.25;20.85;;;409.60;2278.40;;;;;;4807462;29;20035;-82
2021/11/03 16:06:56;;;;;;;29.17;17.27;;;409.60;2278.40;;;;;;4808417;29;20118;-82
2021/11/03 16:09:26;;;;;;;34.38;18.52;;;409.60;2278.40;;;;;;4793044;29;20279;-83
2021/11/03 16:11:55;;;;;;;30.27;17.90;;;409.60;2304.00;;;;;;4808080;29;20066;-83
2021/11/03 16:14:29;;;;;;;33.25;20.00;;;409.60;2304.00;;;;;;4807785;29;20065;-83
2021/11/03 16:16:59;;;;;;;34.83;20.95;;;384.90;2278.40;;;;;;4809039;29;20105;-82
2021/11/03 16:19:27;;;;;;;30.60;16.80;;;384.90;2278.40;;;;;;4808966;29;20033;-94
2021/11/03 16:21:54;;;;;;;53.03;20.58;;;384.90;2278.40;;;;;;4808361;29;20103;-82
2021/11/03 16:24:24;;;;;;;40.20;21.23;;;384.90;2278.40;;;;;;4807905;29;20030;-91
2021/11/03 16:26:51;;;;;;;49.78;25.27;;;384.90;2278.40;;;;;;4807888;29;20508;-84
2021/11/03 16:29:21;;;;;;;39.30;19.48;;;384.90;2278.40;;;;;;4807338;29;20030;-82
2021/11/03 16:31:49;;;;;;;40.58;21.15;;;409.60;2304.00;;;;;;4806496;29;20127;-92
2021/11/03 16:34:14;;;;;;;39.22;21.58;;;384.80;2278.40;;;;;;4808231;29;20031;-89
2021/11/03 16:36:44;;;;;;;46.45;21.30;;;384.80;2278.40;;;;;;4808426;29;20389;-91
2021/11/03 16:39:14;;;;;;;47.58;21.10;;;384.80;2278.40;;;;;;4809377;29;20027;-90
2021/11/03 16:41:45;;;;;;;49.00;22.70;;;384.80;2278.40;;;;;;4808097;29;20103;-91
2021/11/03 16:44:14;;;;;;;41.20;20.17;;;384.80;2304.00;;;;;;4809246;29;20031;-82
2021/11/03 16:46:40;;;;;;;32.78;16.73;;;384.80;2304.00;;;;;;4808124;29;20031;-89
2021/11/03 16:49:06;;;;;;;42.13;21.73;;;384.80;2304.00;;;;;;4807943;29;20081;-82
2021/11/03 16:51:32;;;;;;;51.42;22.75;;;384.80;2304.00;;;;;;4808784;29;20492;-81
2021/11/03 16:54:02;;;;;;;53.50;25.67;;;384.80;2304.00;;;;;;4807174;29;20027;-91
2021/11/03 16:56:29;;;;;;;42.40;23.85;;;384.70;2304.00;;;;;;4807791;29;20507;-82
2021/11/03 16:58:55;;;;;;;38.03;23.15;;;384.70;2304.00;;;;;;4807688;29;20519;-83
2021/11/03 17:01:26;;;;;;;34.08;21.85;;;384.80;2304.00;;;;;;4807696;29;20507;-91
2021/11/03 17:03:53;;;;;;;35.90;23.63;;;384.70;2304.00;;;;;;4808909;29;20034;-85
2021/11/03 17:06:19;;;;;;;34.15;19.67;;;384.70;2304.00;;;;;;4807486;29;20019;-87
2021/11/03 17:08:51;;;;;;;31.02;18.55;;;384.70;2304.00;;;;;;4808595;29;20049;-88
2021/11/03 17:11:30;;;;;;;31.88;16.40;;;384.70;2329.60;;;;;;4792848;29;20106;-90
2021/11/03 17:13:57;;;;;;;31.13;19.15;;;384.70;2329.60;;;;;;4806063;29;20115;-87
2021/11/03 17:16:24;;;;;;;45.88;23.75;;;384.70;2329.60;;;;;;4791683;29;20030;-93
2021/11/03 17:18:50;;;;;;;49.53;28.20;;;384.50;2329.60;;;;;;4807581;29;20064;-92
2021/11/03 17:21:16;;;;;;;72.97;43.13;;;384.70;2329.60;;;;;;4809236;29;20019;-93
2021/11/03 17:23:43;;;;;;;51.92;27.33;;;384.70;2329.60;;;;;;4807960;29;20027;-95
2021/11/03 17:26:17;;;;;;;42.65;27.40;;;384.70;2329.60;;;;;;4792614;29;20380;-93
2021/11/03 17:28:43;;;;;;;53.13;32.88;;;384.70;2329.60;;;;;;4806050;29;20511;-85
2021/11/03 17:31:09;;;;;;;41.35;27.50;;;384.70;2329.60;;;;;;4791972;29;20019;-93
2021/11/03 17:33:36;;;;;;;33.35;19.70;;;384.70;2329.60;;;;;;4807838;29;20034;-94
2021/11/03 17:36:02;;;;;;;32.90;20.13;;;384.70;2329.60;;;;;;4808623;29;20031;-82
2021/11/03 17:38:30;;;;;;;34.97;22.33;;;384.60;2329.60;;;;;;4807645;29;20027;-91
2021/11/03 17:41:06;;;;;;;42.83;24.45;;;384.70;2329.60;;;;;;4807106;29;20434;-80
2021/11/03 17:43:37;;;;;;;46.45;23.38;;;384.60;2329.60;;;;;;4807068;29;20496;-93
2021/11/03 17:46:05;;;;;;;44.25;20.55;;;384.60;2329.60;;;;;;4792301;29;20038;-90
2021/11/03 17:48:33;;;;;;;41.33;19.98;;;384.60;2329.60;;;;;;4808819;29;20038;-92
2021/11/03 17:50:59;;;;;;;33.28;19.05;;;384.50;2329.60;;;;;;4808203;29;20465;-88
2021/11/03 17:53:27;;;;;;;37.65;20.55;;;384.50;2329.60;;;;;;4789731;29;20023;-91
2021/11/03 17:55:59;;;;;;;33.35;17.08;;;384.50;2329.60;;;;;;4806973;29;20042;-88
2021/11/03 17:58:33;;;;;;;25.35;15.85;;;384.50;2329.60;;;;;;4791899;29;20033;-89
2021/11/03 18:01:02;;;;;;;28.17;17.58;;;384.40;2329.60;;;;;;4792745;29;20027;-94
2021/11/03 18:03:31;;;;;;;27.52;14.23;;;384.40;2329.60;;;;;;4805271;29;20033;-95
2021/11/03 18:05:57;;;;;;;28.23;14.05;;;384.40;2329.60;;;;;;4809333;29;20023;-96
2021/11/03 18:08:24;;;;;;;21.42;13.75;;;384.40;2329.60;;;;;;4792656;29;20561;-93
2021/11/03 18:10:51;;;;;;;19.02;11.63;;;384.30;2329.60;;;;;;4807557;29;20072;-94
2021/11/03 18:13:23;;;;;;;19.63;11.60;;;384.30;2329.60;;;;;;4808578;29;20042;-96
2021/11/03 18:15:51;;;;;;;20.67;11.93;;;384.30;2329.60;;;;;;4809060;29;20034;-92
2021/11/03 18:18:21;;;;;;;21.92;11.57;;;384.30;2329.60;;;;;;4791718;29;20034;-89
2021/11/03 18:20:49;;;;;;;18.90;11.30;;;384.20;2329.60;;;;;;4807727;29;20019;-89
2021/11/03 18:23:16;;;;;;;24.75;13.52;;;384.20;2329.60;;;;;;4807607;29;20023;-88
2021/11/03 18:25:48;;;;;;;24.48;12.55;;;384.20;2329.60;;;;;;4807635;29;20044;-85
2021/11/03 18:28:17;;;;;;;26.95;12.85;;;384.20;2329.60;;;;;;4790616;29;20117;-85